createdAt,value
2023-05-23T00:00:21.026Z,608.00
2023-05-23T00:01:20.979Z,605.00
2023-05-23T00:02:21.075Z,605.00
2023-05-23T00:03:21.196Z,602.00
2023-05-23T00:04:21.236Z,606.00
2023-05-23T00:05:21.116Z,607.00
2023-05-23T00:06:21.161Z,605.00
2023-05-23T00:07:21.196Z,605.00
2023-05-23T00:08:21.259Z,603.00
2023-05-23T00:09:21.283Z,603.00
2023-05-23T00:10:21.287Z,605.00
2023-05-23T00:11:21.358Z,606.00
2023-05-23T00:12:21.417Z,605.00
2023-05-23T00:13:21.420Z,601.00
2023-05-23T00:14:21.465Z,605.00
2023-05-23T00:15:21.514Z,602.00
2023-05-23T00:16:21.724Z,604.00
2023-05-23T00:17:21.600Z,604.00
2023-05-23T00:18:21.619Z,602.00
2023-05-23T00:19:21.702Z,606.00
2023-05-23T00:20:21.699Z,606.00
2023-05-23T00:21:21.739Z,605.00
2023-05-23T00:22:21.752Z,607.00
2023-05-23T00:23:21.808Z,604.00
2023-05-23T00:24:21.855Z,606.00
2023-05-23T00:25:21.886Z,606.00
2023-05-23T00:26:21.924Z,608.00
2023-05-23T00:27:21.957Z,603.00
2023-05-23T00:28:21.995Z,607.00
2023-05-23T00:29:22.050Z,605.00
2023-05-23T00:30:22.049Z,607.00
2023-05-23T00:31:22.107Z,603.00
2023-05-23T00:32:22.313Z,607.00
2023-05-23T00:33:22.459Z,607.00
2023-05-23T00:34:22.260Z,605.00
2023-05-23T00:35:22.293Z,605.00
2023-05-23T00:36:22.339Z,606.00
2023-05-23T00:37:22.369Z,602.00
2023-05-23T00:38:22.413Z,603.00
2023-05-23T00:39:22.456Z,605.00
2023-05-23T00:40:22.453Z,602.00
2023-05-23T00:41:22.493Z,600.00
2023-05-23T00:42:22.529Z,603.00
2023-05-23T00:43:22.572Z,604.00
2023-05-23T00:44:22.956Z,604.00
2023-05-23T00:45:22.663Z,603.00
2023-05-23T00:46:22.721Z,603.00
2023-05-23T00:47:22.760Z,604.00
2023-05-23T00:48:22.869Z,604.00
2023-05-23T00:49:22.811Z,605.00
2023-05-23T00:50:22.897Z,606.00
2023-05-23T00:51:22.914Z,606.00
2023-05-23T00:52:22.940Z,604.00
2023-05-23T00:53:22.955Z,608.00
2023-05-23T00:54:23.032Z,601.00
2023-05-23T00:55:23.077Z,604.00
2023-05-23T00:56:23.121Z,605.00
2023-05-23T00:57:23.152Z,606.00
2023-05-23T00:58:23.199Z,608.00
2023-05-23T00:59:23.232Z,606.00
2023-05-23T01:00:23.305Z,605.00
2023-05-23T01:01:23.287Z,603.00
2023-05-23T01:02:23.390Z,607.00
2023-05-23T01:03:23.536Z,606.00
2023-05-23T01:04:23.474Z,602.00
2023-05-23T01:05:23.436Z,604.00
2023-05-23T01:06:23.490Z,605.00
2023-05-23T01:07:23.537Z,607.00
2023-05-23T01:08:23.545Z,603.00
2023-05-23T01:09:23.600Z,602.00
2023-05-23T01:11:42.926Z,600.00
2023-05-23T01:12:42.900Z,600.00
2023-05-23T01:13:42.932Z,600.00
2023-05-23T01:14:42.913Z,600.00
2023-05-23T01:15:43.116Z,600.00
2023-05-23T01:16:42.966Z,601.00
2023-05-23T01:17:42.918Z,599.00
2023-05-23T01:18:42.889Z,605.00
2023-05-23T01:19:42.985Z,603.00
2023-05-23T01:20:42.889Z,603.00
2023-05-23T01:21:42.859Z,605.00
2023-05-23T01:22:42.849Z,604.00
2023-05-23T01:23:42.854Z,600.00
2023-05-23T01:24:42.861Z,601.00
2023-05-23T01:25:42.937Z,599.00
2023-05-23T01:26:42.822Z,602.00
2023-05-23T01:27:42.831Z,603.00
2023-05-23T01:28:42.835Z,602.00
2023-05-23T01:29:42.833Z,600.00
2023-05-23T01:30:42.827Z,600.00
2023-05-23T01:31:42.856Z,601.00
2023-05-23T01:32:42.814Z,602.00
2023-05-23T01:33:42.768Z,606.00
2023-05-23T01:34:42.781Z,601.00
2023-05-23T01:35:42.938Z,606.00
2023-05-23T01:36:42.750Z,602.00
2023-05-23T01:37:42.743Z,605.00
2023-05-23T01:38:42.755Z,605.00
2023-05-23T01:39:42.752Z,604.00
2023-05-23T01:40:42.735Z,604.00
2023-05-23T01:41:42.747Z,606.00
2023-05-23T01:42:42.733Z,603.00
2023-05-23T01:43:42.737Z,603.00
2023-05-23T01:44:42.728Z,602.00
2023-05-23T01:45:42.955Z,605.00
2023-05-23T01:46:42.707Z,606.00
2023-05-23T01:47:42.795Z,604.00
2023-05-23T01:48:42.683Z,607.00
2023-05-23T01:49:42.671Z,607.00
2023-05-23T01:50:42.703Z,606.00
2023-05-23T01:51:42.771Z,602.00
2023-05-23T01:52:42.670Z,603.00
2023-05-23T01:53:42.665Z,604.00
2023-05-23T01:54:42.698Z,603.00
2023-05-23T01:55:42.637Z,606.00
2023-05-23T01:56:42.667Z,605.00
2023-05-23T01:57:42.663Z,605.00
2023-05-23T01:58:42.627Z,606.00
2023-05-23T01:59:42.661Z,602.00
2023-05-23T02:00:42.690Z,603.00
2023-05-23T02:01:42.804Z,605.00
2023-05-23T02:02:42.881Z,604.00
2023-05-23T02:03:42.916Z,603.00
2023-05-23T02:04:42.850Z,605.00
2023-05-23T02:05:43.311Z,606.00
2023-05-23T02:06:42.957Z,604.00
2023-05-23T02:07:43.087Z,603.00
2023-05-23T02:08:43.017Z,604.00
2023-05-23T02:09:43.091Z,605.00
2023-05-23T02:10:43.129Z,607.00
2023-05-23T02:11:43.145Z,605.00
2023-05-23T02:12:43.198Z,603.00
2023-05-23T02:13:43.237Z,604.00
2023-05-23T02:14:43.262Z,607.00
2023-05-23T02:15:43.311Z,602.00
2023-05-23T02:16:43.360Z,607.00
2023-05-23T02:17:43.420Z,606.00
2023-05-23T02:18:43.433Z,602.00
2023-05-23T02:19:43.482Z,604.00
2023-05-23T02:20:43.519Z,606.00
2023-05-23T02:21:43.559Z,607.00
2023-05-23T02:22:43.584Z,607.00
2023-05-23T02:23:43.715Z,606.00
2023-05-23T02:24:43.686Z,604.00
2023-05-23T02:25:43.709Z,608.00
2023-05-23T02:26:43.737Z,607.00
2023-05-23T02:27:43.823Z,606.00
2023-05-23T02:28:43.841Z,606.00
2023-05-23T02:29:43.879Z,605.00
2023-05-23T02:30:43.929Z,607.00
2023-05-23T02:31:44.073Z,608.00
2023-05-23T02:32:44.040Z,607.00
2023-05-23T02:33:44.049Z,607.00
2023-05-23T02:34:44.093Z,607.00
2023-05-23T02:35:44.113Z,605.00
2023-05-23T02:36:44.163Z,607.00
2023-05-23T02:37:44.227Z,606.00
2023-05-23T02:38:44.229Z,606.00
2023-05-23T02:39:44.390Z,606.00
2023-05-23T02:40:44.303Z,604.00
2023-05-23T02:41:44.370Z,605.00
2023-05-23T02:42:44.413Z,606.00
2023-05-23T02:43:46.750Z,607.00
2023-05-23T02:44:44.521Z,608.00
2023-05-23T02:45:44.539Z,608.00
2023-05-23T02:46:44.650Z,608.00
2023-05-23T02:47:44.675Z,605.00
2023-05-23T02:48:44.696Z,608.00
2023-05-23T02:49:44.723Z,606.00
2023-05-23T02:50:44.750Z,608.00
2023-05-23T02:51:44.790Z,605.00
2023-05-23T02:52:44.851Z,606.00
2023-05-23T02:53:44.895Z,605.00
2023-05-23T02:54:44.926Z,604.00
2023-05-23T02:55:45.049Z,606.00
2023-05-23T02:56:44.987Z,604.00
2023-05-23T02:57:45.052Z,610.00
2023-05-23T02:58:45.090Z,608.00
2023-05-23T02:59:45.122Z,606.00
2023-05-23T03:00:45.147Z,611.00
2023-05-23T03:01:45.256Z,605.00
2023-05-23T03:02:45.323Z,608.00
2023-05-23T03:03:45.372Z,608.00
2023-05-23T03:04:45.326Z,608.00
2023-05-23T03:05:45.378Z,608.00
2023-05-23T03:06:45.398Z,605.00
2023-05-23T03:07:45.431Z,611.00
2023-05-23T03:08:45.511Z,608.00
2023-05-23T03:09:45.552Z,606.00
2023-05-23T03:10:45.598Z,609.00
2023-05-23T03:11:45.741Z,605.00
2023-05-23T03:12:45.665Z,606.00
2023-05-23T03:13:45.696Z,608.00
2023-05-23T03:14:45.761Z,605.00
2023-05-23T03:15:45.803Z,607.00
2023-05-23T03:16:45.877Z,608.00
2023-05-23T03:17:45.936Z,606.00
2023-05-23T03:18:45.942Z,607.00
2023-05-23T03:19:45.976Z,607.00
2023-05-23T03:20:46.010Z,607.00
2023-05-23T03:21:46.045Z,604.00
2023-05-23T03:22:46.141Z,606.00
2023-05-23T03:23:46.126Z,606.00
2023-05-23T03:24:46.174Z,609.00
2023-05-23T03:25:46.212Z,606.00
2023-05-23T03:26:46.247Z,606.00
2023-05-23T03:27:46.390Z,607.00
2023-05-23T03:28:46.320Z,607.00
2023-05-23T03:29:46.376Z,604.00
2023-05-23T03:30:46.415Z,605.00
2023-05-23T03:31:46.470Z,609.00
2023-05-23T03:32:46.563Z,609.00
2023-05-23T03:33:46.562Z,607.00
2023-05-23T03:34:46.625Z,605.00
2023-05-23T03:35:46.644Z,606.00
2023-05-23T03:36:46.712Z,608.00
2023-05-23T03:37:46.763Z,607.00
2023-05-23T03:38:46.776Z,607.00
2023-05-23T03:39:46.838Z,607.00
2023-05-23T03:40:46.870Z,607.00
2023-05-23T03:41:46.940Z,606.00
2023-05-23T03:42:46.941Z,608.00
2023-05-23T03:43:47.114Z,606.00
2023-05-23T03:44:47.060Z,608.00
2023-05-23T03:45:47.130Z,608.00
2023-05-23T03:46:47.146Z,607.00
2023-05-23T03:47:47.231Z,608.00
2023-05-23T03:48:47.198Z,604.00
2023-05-23T03:49:47.249Z,604.00
2023-05-23T03:50:47.286Z,606.00
2023-05-23T03:51:47.348Z,608.00
2023-05-23T03:52:47.378Z,606.00
2023-05-23T03:53:47.440Z,607.00
2023-05-23T03:54:47.466Z,609.00
2023-05-23T03:55:47.569Z,606.00
2023-05-23T03:56:47.557Z,609.00
2023-05-23T03:57:47.583Z,609.00
2023-05-23T03:58:47.629Z,606.00
2023-05-23T03:59:47.783Z,608.00
2023-05-23T04:00:47.708Z,605.00
2023-05-23T04:01:47.761Z,604.00
2023-05-23T04:02:47.895Z,606.00
2023-05-23T04:03:47.967Z,611.00
2023-05-23T04:04:47.885Z,608.00
2023-05-23T04:05:47.931Z,608.00
2023-05-23T04:06:47.954Z,608.00
2023-05-23T04:07:48.001Z,607.00
2023-05-23T04:08:48.046Z,604.00
2023-05-23T04:09:48.112Z,607.00
2023-05-23T04:10:48.134Z,607.00
2023-05-23T04:11:48.187Z,607.00
2023-05-23T04:12:48.301Z,607.00
2023-05-23T04:13:48.250Z,609.00
2023-05-23T04:14:48.292Z,609.00
2023-05-23T04:15:48.483Z,604.00
2023-05-23T04:16:48.398Z,609.00
2023-05-23T04:17:48.486Z,607.00
2023-05-23T04:18:48.536Z,605.00
2023-05-23T04:19:48.518Z,608.00
2023-05-23T04:20:48.549Z,608.00
2023-05-23T04:21:48.594Z,604.00
2023-05-23T04:22:48.688Z,607.00
2023-05-23T04:23:48.695Z,608.00
2023-05-23T04:24:48.729Z,606.00
2023-05-23T04:25:48.755Z,608.00
2023-05-23T04:26:48.820Z,608.00
2023-05-23T04:27:48.820Z,605.00
2023-05-23T04:28:48.982Z,604.00
2023-05-23T04:29:48.941Z,607.00
2023-05-23T04:30:48.962Z,606.00
2023-05-23T04:31:49.143Z,607.00
2023-05-23T04:32:49.065Z,603.00
2023-05-23T04:33:49.092Z,606.00
2023-05-23T04:34:49.130Z,608.00
2023-05-23T04:35:49.165Z,608.00
2023-05-23T04:36:49.242Z,608.00
2023-05-23T04:37:49.278Z,607.00
2023-05-23T04:38:49.332Z,608.00
2023-05-23T04:39:49.367Z,605.00
2023-05-23T04:40:49.417Z,607.00
2023-05-23T04:41:49.428Z,607.00
2023-05-23T04:42:49.469Z,608.00
2023-05-23T04:43:49.528Z,608.00
2023-05-23T04:44:49.586Z,611.00
2023-05-23T04:45:49.651Z,607.00
2023-05-23T04:46:49.639Z,603.00
2023-05-23T04:47:49.855Z,607.00
2023-05-23T04:48:49.730Z,608.00
2023-05-23T04:49:49.775Z,607.00
2023-05-23T04:50:49.814Z,605.00
2023-05-23T04:51:49.872Z,607.00
2023-05-23T04:52:49.901Z,608.00
2023-05-23T04:53:49.944Z,608.00
2023-05-23T04:54:50.007Z,612.00
2023-05-23T04:55:50.030Z,608.00
2023-05-23T04:56:50.060Z,607.00
2023-05-23T04:57:50.110Z,609.00
2023-05-23T04:58:50.151Z,611.00
2023-05-23T04:59:50.230Z,610.00
2023-05-23T05:00:50.245Z,606.00
2023-05-23T05:01:50.260Z,611.00
2023-05-23T05:02:50.382Z,609.00
2023-05-23T05:03:50.486Z,607.00
2023-05-23T05:04:50.414Z,607.00
2023-05-23T05:05:50.446Z,606.00
2023-05-23T05:06:50.456Z,610.00
2023-05-23T05:07:50.486Z,608.00
2023-05-23T05:08:50.545Z,604.00
2023-05-23T05:09:50.649Z,608.00
2023-05-23T05:10:50.653Z,609.00
2023-05-23T05:11:50.687Z,608.00
2023-05-23T05:12:50.717Z,608.00
2023-05-23T05:13:50.789Z,609.00
2023-05-23T05:14:50.821Z,609.00
2023-05-23T05:15:50.821Z,608.00
2023-05-23T05:16:50.916Z,607.00
2023-05-23T05:17:50.984Z,608.00
2023-05-23T05:18:50.975Z,607.00
2023-05-23T05:19:51.092Z,608.00
2023-05-23T05:20:51.020Z,607.00
2023-05-23T05:21:51.078Z,608.00
2023-05-23T05:22:51.127Z,607.00
2023-05-23T05:23:51.151Z,609.00
2023-05-23T05:24:51.227Z,605.00
2023-05-23T05:25:51.275Z,607.00
2023-05-23T05:26:51.285Z,606.00
2023-05-23T05:27:51.305Z,606.00
2023-05-23T05:28:51.398Z,609.00
2023-05-23T05:29:51.424Z,608.00
2023-05-23T05:30:51.505Z,609.00
2023-05-23T05:31:51.506Z,608.00
2023-05-23T05:32:51.688Z,607.00
2023-05-23T05:33:51.580Z,606.00
2023-05-23T05:34:51.672Z,609.00
2023-05-23T05:35:51.673Z,609.00
2023-05-23T05:36:51.698Z,609.00
2023-05-23T05:37:51.759Z,610.00
2023-05-23T05:38:51.793Z,611.00
2023-05-23T05:39:51.860Z,608.00
2023-05-23T05:40:51.933Z,609.00
2023-05-23T05:41:51.946Z,610.00
2023-05-23T05:42:51.962Z,607.00
2023-05-23T05:43:52.070Z,610.00
2023-05-23T05:44:52.092Z,608.00
2023-05-23T05:45:52.176Z,610.00
2023-05-23T05:46:52.218Z,609.00
2023-05-23T05:47:52.268Z,607.00
2023-05-23T05:48:52.271Z,608.00
2023-05-23T05:49:52.328Z,608.00
2023-05-23T05:50:52.361Z,611.00
2023-05-23T05:51:52.484Z,614.00
2023-05-23T05:52:52.439Z,613.00
2023-05-23T05:53:52.505Z,609.00
2023-05-23T05:54:52.545Z,611.00
2023-05-23T05:55:52.566Z,609.00
2023-05-23T05:56:52.712Z,608.00
2023-05-23T05:57:52.693Z,616.00
2023-05-23T05:58:52.699Z,626.00
2023-05-23T05:59:52.758Z,630.00
2023-05-23T06:00:52.781Z,640.00
2023-05-23T06:01:52.811Z,654.00
2023-05-23T06:02:52.908Z,661.00
2023-05-23T06:03:53.027Z,682.00
2023-05-23T06:04:52.885Z,672.00
2023-05-23T06:05:52.860Z,709.00
2023-05-23T06:06:52.860Z,702.00
2023-05-23T06:07:52.851Z,718.00
2023-05-23T06:08:52.906Z,750.00
2023-05-23T06:09:52.971Z,751.00
2023-05-23T06:10:53.012Z,773.00
2023-05-23T06:11:53.088Z,777.00
2023-05-23T06:12:53.149Z,799.00
2023-05-23T06:13:53.200Z,808.00
2023-05-23T06:14:53.291Z,813.00
2023-05-23T06:15:53.377Z,834.00
2023-05-23T06:16:53.370Z,847.00
2023-05-23T06:17:53.453Z,850.00
2023-05-23T06:18:53.530Z,859.00
2023-05-23T06:19:53.543Z,893.00
2023-05-23T06:20:53.590Z,963.00
2023-05-23T06:21:53.620Z,945.00
2023-05-23T06:22:53.661Z,920.00
2023-05-23T06:23:53.804Z,921.00
2023-05-23T06:24:53.774Z,920.00
2023-05-23T06:25:53.764Z,925.00
2023-05-23T06:26:53.818Z,921.00
2023-05-23T06:27:53.886Z,901.00
2023-05-23T06:28:53.944Z,916.00
2023-05-23T06:29:53.984Z,982.00
2023-05-23T06:30:54.034Z,977.00
2023-05-23T06:31:54.176Z,969.00
2023-05-23T06:32:54.208Z,958.00
2023-05-23T06:33:54.237Z,951.00
2023-05-23T06:34:54.325Z,950.00
2023-05-23T06:35:54.362Z,944.00
2023-05-23T06:36:54.414Z,939.00
2023-05-23T06:37:54.493Z,940.00
2023-05-23T06:38:54.534Z,947.00
2023-05-23T06:39:54.671Z,984.00
2023-05-23T06:40:54.646Z,1052.00
2023-05-23T06:41:54.754Z,1018.00
2023-05-23T06:42:54.798Z,1019.00
2023-05-23T06:43:54.852Z,1001.00
2023-05-23T06:44:54.961Z,1062.00
2023-05-23T06:45:54.995Z,1069.00
2023-05-23T06:46:55.014Z,1052.00
2023-05-23T06:47:55.119Z,1067.00
2023-05-23T06:49:06.435Z,1115.00
2023-05-23T06:49:56.144Z,1116.00
2023-05-23T06:50:55.137Z,1111.00
2023-05-23T06:51:55.126Z,1139.00
2023-05-23T06:52:55.093Z,1136.00
2023-05-23T06:53:55.098Z,1171.00
2023-05-23T06:54:55.112Z,1176.00
2023-05-23T06:55:55.187Z,1166.00
2023-05-23T06:56:55.100Z,1158.00
2023-05-23T06:57:55.112Z,1169.00
2023-05-23T06:58:55.186Z,1199.00
2023-05-23T06:59:55.251Z,1234.00
2023-05-23T07:00:55.289Z,1232.00
2023-05-23T07:01:55.311Z,1225.00
2023-05-23T07:02:55.448Z,1213.00
2023-05-23T07:03:55.383Z,1226.00
2023-05-23T07:04:55.448Z,1233.00
2023-05-23T07:05:55.536Z,1220.00
2023-05-23T07:06:55.486Z,1241.00
2023-05-23T07:07:55.536Z,1248.00
2023-05-23T07:08:55.736Z,1252.00
2023-05-23T07:09:55.583Z,1258.00
2023-05-23T07:10:55.578Z,1292.00
2023-05-23T07:11:55.695Z,1294.00
2023-05-23T07:12:55.577Z,1308.00
2023-05-23T07:13:55.621Z,1303.00
2023-05-23T07:14:55.646Z,1312.00
2023-05-23T07:15:55.742Z,1306.00
2023-05-23T07:16:55.677Z,1321.00
2023-05-23T07:17:55.722Z,1323.00
2023-05-23T07:18:55.838Z,1337.00
2023-05-23T07:19:55.669Z,1339.00
2023-05-23T07:20:55.714Z,1355.00
2023-05-23T07:21:55.736Z,1355.00
2023-05-23T07:22:55.705Z,1370.00
2023-05-23T07:23:55.740Z,1383.00
2023-05-23T07:24:55.761Z,1380.00
2023-05-23T07:26:02.684Z,1384.00
2023-05-23T07:26:56.756Z,1385.00
2023-05-23T07:27:55.846Z,1387.00
2023-05-23T07:28:55.782Z,1385.00
2023-05-23T07:29:55.785Z,1386.00
2023-05-23T07:30:55.755Z,1389.00
2023-05-23T07:31:55.737Z,1402.00
2023-05-23T07:32:55.730Z,1379.00
2023-05-23T07:33:55.918Z,1380.00
2023-05-23T07:34:55.715Z,1414.00
2023-05-23T07:35:55.713Z,1420.00
2023-05-23T07:36:55.687Z,1406.00
2023-05-23T07:37:55.688Z,1402.00
2023-05-23T07:38:55.685Z,1392.00
2023-05-23T07:39:55.679Z,1413.00
2023-05-23T07:41:10.044Z,1418.00
2023-05-23T07:41:56.880Z,1419.00
2023-05-23T07:42:55.879Z,1420.00
2023-05-23T07:43:55.857Z,1415.00
2023-05-23T07:44:55.839Z,1402.00
2023-05-23T07:45:55.877Z,1396.00
2023-05-23T07:46:56.014Z,1399.00
2023-05-23T07:47:55.893Z,1383.00
2023-05-23T07:48:55.958Z,1388.00
2023-05-23T07:49:55.972Z,1387.00
2023-05-23T07:50:56.020Z,1388.00
2023-05-23T07:51:56.102Z,1377.00
2023-05-23T07:52:56.198Z,1365.00
2023-05-23T07:53:56.181Z,1355.00
2023-05-23T07:54:56.224Z,1343.00
2023-05-23T07:55:56.296Z,1350.00
2023-05-23T07:56:56.336Z,1343.00
2023-05-23T07:57:56.406Z,1341.00
2023-05-23T07:58:56.664Z,1345.00
2023-05-23T07:59:56.756Z,1340.00
2023-05-23T08:00:56.612Z,1339.00
2023-05-23T08:01:56.741Z,1331.00
2023-05-23T08:02:56.758Z,1322.00
2023-05-23T08:03:56.808Z,1311.00
2023-05-23T08:04:56.995Z,1286.00
2023-05-23T08:05:56.860Z,1288.00
2023-05-23T08:07:56.959Z,1270.00
2023-05-23T08:08:56.919Z,1261.00
2023-05-23T08:09:56.981Z,1253.00
2023-05-23T08:10:56.958Z,1252.00
2023-05-23T08:11:56.884Z,1254.00
2023-05-23T08:12:56.880Z,1254.00
2023-05-23T08:13:57.115Z,1243.00
2023-05-23T08:14:56.854Z,1236.00
2023-05-23T08:15:56.872Z,1223.00
2023-05-23T08:16:56.904Z,1212.00
2023-05-23T08:17:56.955Z,1214.00
2023-05-23T08:18:56.972Z,1213.00
2023-05-23T08:19:56.852Z,1217.00
2023-05-23T08:20:56.803Z,1201.00
2023-05-23T08:21:56.813Z,1203.00
2023-05-23T08:22:56.817Z,1203.00
2023-05-23T08:23:56.783Z,1188.00
2023-05-23T08:24:56.808Z,1191.00
2023-05-23T08:25:56.821Z,1188.00
2023-05-23T08:26:56.806Z,1189.00
2023-05-23T08:27:56.782Z,1188.00
2023-05-23T08:28:56.745Z,1183.00
2023-05-23T08:29:56.773Z,1173.00
2023-05-23T08:30:56.811Z,1186.00
2023-05-23T08:31:56.801Z,1175.00
2023-05-23T08:32:56.782Z,1174.00
2023-05-23T08:33:56.759Z,1164.00
2023-05-23T08:34:56.733Z,1178.00
2023-05-23T08:35:56.745Z,1171.00
2023-05-23T08:36:56.714Z,1164.00
2023-05-23T08:37:56.731Z,1155.00
2023-05-23T08:38:56.699Z,1149.00
2023-05-23T08:39:56.701Z,1150.00
2023-05-23T08:40:56.717Z,1136.00
2023-05-23T08:41:56.684Z,1145.00
2023-05-23T08:42:56.685Z,1139.00
2023-05-23T08:43:56.656Z,1140.00
2023-05-23T08:44:56.670Z,1135.00
2023-05-23T08:45:56.697Z,1135.00
2023-05-23T08:46:56.652Z,1136.00
2023-05-23T08:47:56.661Z,1135.00
2023-05-23T08:48:56.662Z,1138.00
2023-05-23T08:49:56.672Z,1137.00
2023-05-23T08:50:56.593Z,1130.00
2023-05-23T08:51:56.619Z,1138.00
2023-05-23T08:52:56.669Z,1129.00
2023-05-23T08:53:56.592Z,1154.00
2023-05-23T08:54:56.606Z,1147.00
2023-05-23T08:55:56.667Z,1162.00
2023-05-23T08:56:56.583Z,1164.00
2023-05-23T08:57:56.591Z,1164.00
2023-05-23T08:58:56.585Z,1172.00
2023-05-23T08:59:56.569Z,1181.00
2023-05-23T09:00:56.692Z,1185.00
2023-05-23T09:01:56.628Z,1179.00
2023-05-23T09:02:56.597Z,1182.00
2023-05-23T09:03:56.562Z,1208.00
2023-05-23T09:04:56.532Z,1205.00
2023-05-23T09:05:56.677Z,1217.00
2023-05-23T09:06:56.535Z,1217.00
2023-05-23T09:07:56.518Z,1229.00
2023-05-23T09:08:56.493Z,1232.00
2023-05-23T09:09:56.516Z,1239.00
2023-05-23T09:10:56.510Z,1247.00
2023-05-23T09:11:56.511Z,1252.00
2023-05-23T09:12:56.510Z,1269.00
2023-05-23T09:13:56.474Z,1270.00
2023-05-23T09:14:56.495Z,1269.00
2023-05-23T09:15:56.486Z,1268.00
2023-05-23T09:16:56.454Z,1277.00
2023-05-23T09:17:56.519Z,1278.00
2023-05-23T09:18:56.530Z,1285.00
2023-05-23T09:19:56.566Z,1291.00
2023-05-23T09:20:56.545Z,1293.00
2023-05-23T09:21:56.547Z,1299.00
2023-05-23T09:22:56.591Z,1314.00
2023-05-23T09:23:56.606Z,1307.00
2023-05-23T09:24:56.616Z,1294.00
2023-05-23T09:25:56.677Z,1325.00
2023-05-23T09:26:56.709Z,1326.00
2023-05-23T09:27:56.672Z,1364.00
2023-05-23T09:28:56.725Z,1348.00
2023-05-23T09:29:56.716Z,1349.00
2023-05-23T09:30:56.704Z,1346.00
2023-05-23T09:31:56.839Z,1336.00
2023-05-23T09:32:56.788Z,1332.00
2023-05-23T09:33:56.773Z,1337.00
2023-05-23T09:34:56.758Z,1318.00
2023-05-23T09:35:56.871Z,1331.00
2023-05-23T09:36:56.778Z,1329.00
2023-05-23T09:37:56.795Z,1342.00
2023-05-23T09:38:56.772Z,1323.00
2023-05-23T09:39:56.818Z,1307.00
2023-05-23T09:40:56.813Z,1320.00
2023-05-23T09:41:56.798Z,1302.00
2023-05-23T09:42:56.842Z,1312.00
2023-05-23T09:43:56.834Z,1296.00
2023-05-23T09:44:56.866Z,1293.00
2023-05-23T09:45:56.853Z,1302.00
2023-05-23T09:46:56.855Z,1296.00
2023-05-23T09:47:56.905Z,1291.00
2023-05-23T09:48:56.897Z,1286.00
2023-05-23T09:49:56.894Z,1267.00
2023-05-23T09:50:56.909Z,1259.00
2023-05-23T09:51:56.938Z,1262.00
2023-05-23T09:52:56.968Z,1260.00
2023-05-23T09:53:57.101Z,1256.00
2023-05-23T09:54:56.995Z,1263.00
2023-05-23T09:55:57.026Z,1255.00
2023-05-23T09:56:57.329Z,1256.00
2023-05-23T09:57:57.061Z,1254.00
2023-05-23T09:58:57.023Z,1255.00
2023-05-23T09:59:57.062Z,1249.00
2023-05-23T10:00:57.056Z,1252.00
2023-05-23T10:01:57.067Z,1255.00
2023-05-23T10:02:57.136Z,1254.00
2023-05-23T10:03:59.417Z,1235.00
2023-05-23T10:04:57.056Z,1240.00
2023-05-23T10:05:57.033Z,1219.00
2023-05-23T10:06:57.087Z,1218.00
2023-05-23T10:07:57.030Z,1225.00
2023-05-23T10:08:57.006Z,1231.00
2023-05-23T10:09:59.123Z,1227.00
2023-05-23T10:10:57.154Z,1227.00
2023-05-23T10:11:57.013Z,1228.00
2023-05-23T10:12:56.991Z,1223.00
2023-05-23T10:13:56.980Z,1228.00
2023-05-23T10:14:57.016Z,1241.00
2023-05-23T10:15:58.163Z,1219.00
2023-05-23T10:16:57.019Z,1223.00
2023-05-23T10:17:57.061Z,1230.00
2023-05-23T10:18:57.047Z,1245.00
2023-05-23T10:19:57.002Z,1222.00
2023-05-23T10:20:57.019Z,1226.00
2023-05-23T10:21:57.021Z,1232.00
2023-05-23T10:22:57.024Z,1244.00
2023-05-23T10:23:57.007Z,1224.00
2023-05-23T10:24:57.023Z,1221.00
2023-05-23T10:25:56.990Z,1214.00
2023-05-23T10:26:57.010Z,1208.00
2023-05-23T10:27:56.995Z,1202.00
2023-05-23T10:28:57.025Z,1218.00
2023-05-23T10:29:57.024Z,1224.00
2023-05-23T10:30:57.130Z,1228.00
2023-05-23T10:31:57.005Z,1246.00
2023-05-23T10:32:57.028Z,1237.00
2023-05-23T10:33:57.044Z,1216.00
2023-05-23T10:34:57.100Z,1220.00
2023-05-23T10:35:57.023Z,1181.00
2023-05-23T10:36:57.002Z,1086.00
2023-05-23T10:37:57.111Z,1034.00
2023-05-23T10:38:57.003Z,1028.00
2023-05-23T10:39:57.041Z,997.00
2023-05-23T10:40:57.071Z,957.00
2023-05-23T10:41:57.096Z,971.00
2023-05-23T10:42:57.139Z,920.00
2023-05-23T10:43:57.171Z,993.00
2023-05-23T10:44:57.590Z,997.00
2023-05-23T10:45:57.311Z,995.00
2023-05-23T10:46:57.347Z,995.00
2023-05-23T10:47:57.346Z,985.00
2023-05-23T10:48:57.441Z,983.00
2023-05-23T10:49:57.452Z,988.00
2023-05-23T10:50:57.519Z,988.00
2023-05-23T10:51:57.560Z,984.00
2023-05-23T10:52:57.592Z,976.00
2023-05-23T10:53:57.637Z,979.00
2023-05-23T10:54:57.727Z,973.00
2023-05-23T10:55:57.745Z,973.00
2023-05-23T10:56:57.831Z,964.00
2023-05-23T10:57:57.853Z,965.00
2023-05-23T10:58:57.937Z,973.00
2023-05-23T10:59:57.935Z,968.00
2023-05-23T11:00:58.046Z,959.00
2023-05-23T11:01:58.107Z,963.00
2023-05-23T11:02:58.187Z,961.00
2023-05-23T11:03:58.294Z,962.00
2023-05-23T11:04:58.230Z,968.00
2023-05-23T11:05:58.256Z,963.00
2023-05-23T11:06:58.350Z,964.00
2023-05-23T11:07:58.415Z,959.00
2023-05-23T11:08:58.486Z,959.00
2023-05-23T11:09:58.509Z,957.00
2023-05-23T11:10:58.563Z,963.00
2023-05-23T11:11:58.637Z,961.00
2023-05-23T11:12:58.704Z,955.00
2023-05-23T11:13:58.758Z,962.00
2023-05-23T11:14:58.830Z,950.00
2023-05-23T11:15:58.931Z,946.00
2023-05-23T11:16:58.953Z,948.00
2023-05-23T11:17:59.043Z,944.00
2023-05-23T11:18:59.092Z,960.00
2023-05-23T11:19:59.131Z,949.00
2023-05-23T11:20:59.179Z,959.00
2023-05-23T11:21:59.237Z,954.00
2023-05-23T11:22:59.288Z,948.00
2023-05-23T11:23:59.364Z,955.00
2023-05-23T11:24:59.445Z,943.00
2023-05-23T11:25:59.476Z,953.00
2023-05-23T11:26:59.527Z,951.00
2023-05-23T11:27:59.624Z,955.00
2023-05-23T11:28:59.714Z,947.00
2023-05-23T11:29:59.714Z,949.00
2023-05-23T11:30:59.792Z,947.00
2023-05-23T11:31:59.888Z,951.00
2023-05-23T11:32:59.959Z,954.00
2023-05-23T11:34:00.050Z,943.00
2023-05-23T11:35:00.094Z,947.00
2023-05-23T11:36:00.162Z,949.00
2023-05-23T11:37:00.208Z,946.00
2023-05-23T11:38:00.293Z,944.00
2023-05-23T11:39:00.321Z,939.00
2023-05-23T11:40:00.388Z,942.00
2023-05-23T11:41:00.487Z,938.00
2023-05-23T11:42:00.508Z,933.00
2023-05-23T11:43:00.566Z,925.00
2023-05-23T11:44:00.644Z,918.00
2023-05-23T11:45:00.696Z,933.00
2023-05-23T11:46:00.807Z,926.00
2023-05-23T11:47:00.808Z,930.00
2023-05-23T11:48:00.856Z,929.00
2023-05-23T11:49:00.929Z,927.00
2023-05-23T11:50:00.974Z,919.00
2023-05-23T11:51:01.055Z,922.00
2023-05-23T11:52:01.051Z,927.00
2023-05-23T11:53:01.164Z,918.00
2023-05-23T11:54:01.190Z,913.00
2023-05-23T11:55:03.855Z,912.00
2023-05-23T11:56:01.252Z,916.00
2023-05-23T11:57:01.250Z,906.00
2023-05-23T11:58:01.839Z,908.00
2023-05-23T11:59:01.273Z,910.00
2023-05-23T12:00:01.191Z,905.00
2023-05-23T12:01:01.217Z,905.00
2023-05-23T12:02:01.237Z,902.00
2023-05-23T12:03:01.329Z,896.00
2023-05-23T12:04:01.398Z,903.00
2023-05-23T12:05:01.249Z,899.00
2023-05-23T12:06:01.235Z,896.00
2023-05-23T12:07:01.194Z,893.00
2023-05-23T12:08:01.182Z,888.00
2023-05-23T12:09:01.177Z,891.00
2023-05-23T12:10:01.188Z,886.00
2023-05-23T12:11:01.157Z,881.00
2023-05-23T12:12:01.177Z,883.00
2023-05-23T12:13:01.178Z,884.00
2023-05-23T12:14:01.136Z,879.00
2023-05-23T12:15:01.158Z,878.00
2023-05-23T12:16:01.175Z,879.00
2023-05-23T12:17:01.102Z,866.00
2023-05-23T12:18:01.144Z,880.00
2023-05-23T12:19:01.174Z,873.00
2023-05-23T12:20:01.080Z,871.00
2023-05-23T12:21:01.077Z,872.00
2023-05-23T12:22:01.075Z,865.00
2023-05-23T12:23:01.080Z,863.00
2023-05-23T12:24:08.070Z,856.00